createdAt,value
2023-03-23T16:00:37.836Z,11.20
2023-03-23T16:05:40.004Z,11.70
2023-03-23T16:10:43.388Z,16.20
2023-03-23T16:15:47.599Z,13.80
2023-03-23T16:20:50.766Z,16.20
2023-03-23T16:25:52.762Z,13.80
2023-03-23T16:30:54.603Z,13.50
2023-03-23T16:40:59.377Z,11.40
2023-03-23T16:51:02.851Z,10.80
2023-03-23T16:56:04.978Z,12.30
2023-03-23T17:01:07.020Z,32.70
2023-03-23T17:11:11.395Z,11.20
2023-03-23T17:16:13.488Z,14.70
2023-03-23T17:21:15.215Z,15.50
2023-03-23T17:26:16.895Z,18.00
2023-03-23T17:31:18.744Z,17.80
2023-03-23T17:41:22.557Z,23.10
2023-03-23T17:46:25.016Z,23.20
2023-03-23T17:51:26.830Z,20.30
2023-03-23T17:56:28.681Z,21.90
2023-03-23T18:06:33.204Z,13.00
2023-03-23T18:11:35.358Z,13.80
2023-03-23T18:16:37.564Z,13.90
2023-03-23T18:21:40.469Z,13.70
2023-03-23T18:26:42.235Z,17.90
2023-03-23T18:31:44.539Z,19.40
2023-03-23T18:36:47.739Z,17.30
2023-03-23T18:41:49.607Z,17.00
2023-03-23T18:46:51.594Z,20.80
2023-03-23T18:51:54.458Z,24.00
2023-03-23T18:57:00.368Z,32.70
2023-03-23T19:02:03.573Z,26.20
2023-03-23T19:07:05.929Z,29.60
2023-03-23T19:12:12.185Z,25.50
2023-03-23T19:17:14.239Z,27.40
2023-03-23T19:22:15.927Z,31.00
2023-03-23T19:27:19.204Z,35.60
2023-03-23T19:32:21.783Z,33.70
2023-03-23T19:37:23.682Z,31.20
2023-03-23T19:42:25.749Z,26.50
2023-03-23T19:47:28.195Z,32.60
2023-03-23T19:52:33.089Z,30.80
2023-03-23T19:57:35.288Z,24.50
2023-03-23T20:07:41.730Z,18.20
2023-03-23T20:12:45.608Z,17.80
2023-03-23T20:22:53.325Z,15.00
2023-03-23T20:27:56.181Z,16.90
2023-03-23T20:33:00.783Z,12.60
2023-03-23T20:38:02.499Z,12.70
2023-03-23T20:43:04.524Z,14.00
2023-03-23T20:48:06.527Z,10.80
2023-03-23T20:53:08.708Z,10.80
2023-03-23T21:03:14.278Z,8.30
2023-03-23T21:08:18.207Z,11.10
2023-03-23T21:13:20.010Z,9.50
2023-03-23T21:23:26.661Z,11.70
2023-03-23T21:28:29.022Z,9.30
2023-03-23T21:33:31.074Z,11.60
2023-03-23T21:38:33.834Z,7.60
2023-03-23T21:43:36.445Z,9.00
2023-03-23T21:48:38.878Z,8.90
2023-03-23T21:53:42.165Z,9.10
2023-03-23T21:58:43.934Z,11.40
2023-03-23T22:03:46.213Z,9.10
2023-03-23T22:08:49.221Z,10.20
2023-03-23T22:13:56.557Z,11.10
2023-03-23T22:19:00.375Z,9.50
2023-03-23T22:24:02.587Z,9.80
2023-03-23T22:29:05.377Z,10.60
2023-03-23T22:34:07.494Z,9.30
2023-03-23T22:39:09.864Z,7.50
2023-03-23T22:44:15.674Z,9.20
2023-03-23T22:49:37.534Z,8.60
2023-03-23T22:54:59.657Z,10.30
2023-03-23T23:00:07.569Z,12.70
2023-03-23T23:05:13.772Z,9.40
2023-03-23T23:10:15.617Z,9.30
2023-03-23T23:15:17.324Z,10.00
2023-03-23T23:20:19.961Z,13.20
2023-03-23T23:25:22.381Z,9.90
2023-03-23T23:35:27.121Z,7.20
2023-03-23T23:40:28.860Z,7.00
2023-03-23T23:45:31.609Z,8.90
2023-03-23T23:50:33.860Z,8.40
2023-03-23T23:55:35.523Z,9.10
